Time;durP1;ratioP1;P1;durP2;ratioP2;P2;SDS_P1;SDS_P2;PMS_P1;PMS_P2;Temp;Humidity;BMP_temperature;BMP_pressure;BME280_temperature;BME280_humidity;BME280_pressure;Samples;Min_cycle;Max_cycle;Signal;HPM_P1;HPM_P2
2022/08/05 00:00:53;;;;;;;;;;;;;;;;;;2115026;28;19975;-46
2022/08/05 00:01:54;;;;;;;;;;;;;;;;;;2114840;28;19924;-46
2022/08/05 00:02:55;;;;;;;;;;;;;;;;;;2115002;28;20018;-45
2022/08/05 00:03:56;;;;;;;;;;;;;;;;;;2115029;28;19928;-46
2022/08/05 00:04:57;;;;;;;;;;;;;;;;;;2114226;28;19924;-46
2022/08/05 00:05:58;;;;;;;;;;;;;;;;;;2115143;28;20015;-46
2022/08/05 00:07:07;;;;;;;;;;;;;;;;;;2115052;28;19962;-46
2022/08/05 00:08:27;;;;;;;;;;;;;;;;;;2115195;28;20015;-45
2022/08/05 00:09:35;;;;;;;;;;;;;;;;;;2115238;28;20322;-45
2022/08/05 00:10:36;;;;;;;;;;;;;;;;;;2115115;28;19924;-45
2022/08/05 00:11:37;;;;;;;;;;;;;;;;;;2109174;28;20006;-46
2022/08/05 00:12:49;;;;;;;;;;;;;;;;;;2106756;28;19924;-45
2022/08/05 00:13:57;;;;;;;;;;;;;;;;;;2106545;28;20369;-45
2022/08/05 00:14:58;;;;;;;;;;;;;;;;;;2106677;28;19924;-45
2022/08/05 00:15:59;;;;;;;;;;;;;;;;;;2106550;28;19970;-45
2022/08/05 00:17:00;;;;;;;;;;;;;;;;;;2106425;28;20389;-46
2022/08/05 00:18:02;;;;;;;;;;;;;;;;;;2106525;28;20020;-46
2022/08/05 00:19:03;;;;;;;;;;;;;;;;;;2106461;28;19924;-46
2022/08/05 00:20:04;;;;;;;;;;;;;;;;;;2106565;28;20018;-47
2022/08/05 00:21:05;;;;;;;;;;;;;;;;;;2106338;28;20345;-45
2022/08/05 00:22:06;;;;;;;;;;;;;;;;;;2106500;28;19928;-46
2022/08/05 00:23:07;;;;;;;;;;;;;;;;;;2106460;28;19924;-46
2022/08/05 00:24:13;;;;;;;;;;;;;;;;;;2106693;28;19924;-47
2022/08/05 00:25:16;;;;;;;;;;;;;;;;;;2106388;28;20381;-46
2022/08/05 00:26:18;;;;;;;;;;;;;;;;;;2106524;28;19924;-46
2022/08/05 00:27:19;;;;;;;;;;;;;;;;;;2106601;28;20006;-47
2022/08/05 00:28:20;;;;;;;;;;;;;;;;;;2106423;28;20082;-45
2022/08/05 00:29:30;;;;;;;;;;;;;;;;;;2106456;28;19993;-45
2022/08/05 00:30:38;;;;;;;;;;;;;;;;;;2106590;28;19935;-47
2022/08/05 00:31:39;;;;;;;;;;;;;;;;;;2106253;28;19924;-46
2022/08/05 00:32:54;;;;;;;;;;;;;;;;;;2106580;28;20374;-45
2022/08/05 00:33:55;;;;;;;;;;;;;;;;;;2106475;28;19928;-45
2022/08/05 00:35:16;;;;;;;;;;;;;;;;;;2106487;28;19924;-46
2022/08/05 00:36:17;;;;;;;;;;;;;;;;;;2106315;28;20387;-45
2022/08/05 00:37:38;;;;;;;;;;;;;;;;;;2106361;28;19973;-46
2022/08/05 00:38:53;;;;;;;;;;;;;;;;;;2106369;28;20376;-45
2022/08/05 00:39:54;;;;;;;;;;;;;;;;;;2106388;28;19932;-45
2022/08/05 00:40:58;;;;;;;;;;;;;;;;;;2106320;28;19927;-44
2022/08/05 00:41:59;;;;;;;;;;;;;;;;;;2106189;28;19924;-45
2022/08/05 00:43:00;;;;;;;;;;;;;;;;;;2106307;28;19924;-47
2022/08/05 00:44:01;;;;;;;;;;;;;;;;;;2106279;28;20436;-44
2022/08/05 00:45:02;;;;;;;;;;;;;;;;;;2106343;28;20369;-44
2022/08/05 00:46:02;;;;;;;;;;;;;;;;;;2106175;28;19967;-46
2022/08/05 00:47:03;;;;;;;;;;;;;;;;;;2106322;28;19924;-45
2022/08/05 00:48:06;;;;;;;;;;;;;;;;;;2106273;28;20003;-45
2022/08/05 00:49:07;;;;;;;;;;;;;;;;;;2106334;28;19924;-45
2022/08/05 00:50:08;;;;;;;;;;;;;;;;;;2106344;28;19931;-45
2022/08/05 00:51:09;;;;;;;;;;;;;;;;;;2106514;28;19958;-45
2022/08/05 00:52:30;;;;;;;;;;;;;;;;;;2106355;28;19924;-44
2022/08/05 00:53:31;;;;;;;;;;;;;;;;;;2108601;28;20352;-45
2022/08/05 00:54:51;;;;;;;;;;;;;;;;;;2114716;28;19934;-46
2022/08/05 00:55:52;;;;;;;;;;;;;;;;;;2114786;28;19935;-45
2022/08/05 00:56:53;;;;;;;;;;;;;;;;;;2114864;28;20002;-45
2022/08/05 00:57:54;;;;;;;;;;;;;;;;;;2114763;28;19931;-44
2022/08/05 00:58:59;;;;;;;;;;;;;;;;;;2114659;28;19970;-44
2022/08/05 01:00:00;;;;;;;;;;;;;;;;;;2114701;28;19930;-46
2022/08/05 01:01:01;;;;;;;;;;;;;;;;;;2114805;28;19927;-45
2022/08/05 01:02:02;;;;;;;;;;;;;;;;;;2114439;28;19924;-44
2022/08/05 01:03:03;;;;;;;;;;;;;;;;;;2114714;28;20131;-45
2022/08/05 01:04:08;;;;;;;;;;;;;;;;;;2114815;28;19923;-45
2022/08/05 01:05:14;;;;;;;;;;;;;;;;;;2114552;28;19931;-45
2022/08/05 01:06:15;;;;;;;;;;;;;;;;;;2114600;28;19934;-45
2022/08/05 01:07:16;;;;;;;;;;;;;;;;;;2114664;28;19954;-45
2022/08/05 01:08:18;;;;;;;;;;;;;;;;;;2114481;28;20291;-44
2022/08/05 01:09:40;;;;;;;;;;;;;;;;;;2114732;28;19930;-45
2022/08/05 01:10:41;;;;;;;;;;;;;;;;;;2114602;28;20018;-45
2022/08/05 01:11:42;;;;;;;;;;;;;;;;;;2108094;28;20369;-45
2022/08/05 01:12:43;;;;;;;;;;;;;;;;;;2106242;28;19924;-44
2022/08/05 01:13:54;;;;;;;;;;;;;;;;;;2106301;28;19936;-45
2022/08/05 01:14:58;;;;;;;;;;;;;;;;;;2106214;28;20297;-48
2022/08/05 01:15:59;;;;;;;;;;;;;;;;;;2106236;28;19924;-44
2022/08/05 01:17:00;;;;;;;;;;;;;;;;;;2106085;28;19931;-44
2022/08/05 01:18:01;;;;;;;;;;;;;;;;;;2106432;28;19951;-45
2022/08/05 01:19:01;;;;;;;;;;;;;;;;;;2106180;28;19947;-46
2022/08/05 01:20:02;;;;;;;;;;;;;;;;;;2106365;28;19946;-45
2022/08/05 01:21:03;;;;;;;;;;;;;;;;;;2106160;28;19935;-46
2022/08/05 01:22:05;;;;;;;;;;;;;;;;;;2106200;28;20096;-46
2022/08/05 01:23:06;;;;;;;;;;;;;;;;;;2106207;28;20011;-48
2022/08/05 01:24:14;;;;;;;;;;;;;;;;;;2106115;28;19924;-45
2022/08/05 01:25:15;;;;;;;;;;;;;;;;;;2106280;28;19928;-45
2022/08/05 01:26:16;;;;;;;;;;;;;;;;;;2105961;28;19947;-46
2022/08/05 01:27:17;;;;;;;;;;;;;;;;;;2106208;28;19963;-46
2022/08/05 01:28:20;;;;;;;;;;;;;;;;;;2106117;28;20018;-47
2022/08/05 01:29:20;;;;;;;;;;;;;;;;;;2106188;28;20026;-48
2022/08/05 01:30:23;;;;;;;;;;;;;;;;;;2106357;28;19963;-44
2022/08/05 01:31:35;;;;;;;;;;;;;;;;;;2106072;28;20027;-45
2022/08/05 01:32:43;;;;;;;;;;;;;;;;;;2106050;28;19924;-44
2022/08/05 01:33:44;;;;;;;;;;;;;;;;;;2106227;28;20007;-44
2022/08/05 01:34:49;;;;;;;;;;;;;;;;;;2106110;28;19928;-45
2022/08/05 01:35:50;;;;;;;;;;;;;;;;;;2105997;28;19924;-45
2022/08/05 01:36:53;;;;;;;;;;;;;;;;;;2106124;28;20053;-45
2022/08/05 01:37:54;;;;;;;;;;;;;;;;;;2106347;28;19977;-45
2022/08/05 01:38:55;;;;;;;;;;;;;;;;;;2106097;28;20147;-46
2022/08/05 01:39:56;;;;;;;;;;;;;;;;;;2106053;28;19924;-44
2022/08/05 01:40:59;;;;;;;;;;;;;;;;;;2106118;28;19924;-45
2022/08/05 01:42:01;;;;;;;;;;;;;;;;;;2105924;28;19924;-44
2022/08/05 01:43:02;;;;;;;;;;;;;;;;;;2106191;28;20292;-44
2022/08/05 01:44:05;;;;;;;;;;;;;;;;;;2106049;28;19931;-45
2022/08/05 01:45:06;;;;;;;;;;;;;;;;;;2105967;28;20007;-45
2022/08/05 01:46:08;;;;;;;;;;;;;;;;;;2106023;28;19931;-44
2022/08/05 01:47:17;;;;;;;;;;;;;;;;;;2106203;28;19924;-44
2022/08/05 01:48:18;;;;;;;;;;;;;;;;;;2106046;28;19925;-44
2022/08/05 01:49:19;;;;;;;;;;;;;;;;;;2106100;28;20288;-45
2022/08/05 01:50:24;;;;;;;;;;;;;;;;;;2113964;28;19924;-44
2022/08/05 01:51:28;;;;;;;;;;;;;;;;;;2114364;28;19930;-48
2022/08/05 01:52:29;;;;;;;;;;;;;;;;;;2114429;28;20264;-45
2022/08/05 01:53:30;;;;;;;;;;;;;;;;;;2114339;28;19953;-44
2022/08/05 01:54:51;;;;;;;;;;;;;;;;;;2114563;28;20262;-45
2022/08/05 01:55:53;;;;;;;;;;;;;;;;;;2114509;28;19931;-46
2022/08/05 01:56:54;;;;;;;;;;;;;;;;;;2114480;28;20291;-45
2022/08/05 01:58:14;;;;;;;;;;;;;;;;;;2114304;28;19969;-45
2022/08/05 01:59:16;;;;;;;;;;;;;;;;;;2114499;28;19999;-46
2022/08/05 02:00:17;;;;;;;;;;;;;;;;;;2114225;28;20073;-45
2022/08/05 02:01:18;;;;;;;;;;;;;;;;;;2114479;28;19930;-46
2022/08/05 02:02:24;;;;;;;;;;;;;;;;;;2114325;28;19924;-45
2022/08/05 02:03:26;;;;;;;;;;;;;;;;;;2114249;28;19963;-47
2022/08/05 02:04:31;;;;;;;;;;;;;;;;;;2114583;28;19953;-45
2022/08/05 02:05:32;;;;;;;;;;;;;;;;;;2114668;28;19928;-45
2022/08/05 02:06:34;;;;;;;;;;;;;;;;;;2114280;28;20380;-45
2022/08/05 02:07:39;;;;;;;;;;;;;;;;;;2114478;28;19928;-45
2022/08/05 02:08:39;;;;;;;;;;;;;;;;;;2114589;28;20014;-45
2022/08/05 02:09:45;;;;;;;;;;;;;;;;;;2114477;28;19928;-44
2022/08/05 02:10:46;;;;;;;;;;;;;;;;;;2114380;28;19924;-45
2022/08/05 02:11:47;;;;;;;;;;;;;;;;;;2107268;28;20281;-45
2022/08/05 02:12:52;;;;;;;;;;;;;;;;;;2106001;28;19953;-46
2022/08/05 02:13:54;;;;;;;;;;;;;;;;;;2106027;28;20229;-45
2022/08/05 02:14:54;;;;;;;;;;;;;;;;;;2105869;28;20447;-45
2022/08/05 02:15:55;;;;;;;;;;;;;;;;;;2105860;28;19928;-45
2022/08/05 02:16:56;;;;;;;;;;;;;;;;;;2105834;28;19950;-45
2022/08/05 02:17:57;;;;;;;;;;;;;;;;;;2105738;28;19924;-49
2022/08/05 02:19:18;;;;;;;;;;;;;;;;;;2105875;28;19930;-46
2022/08/05 02:20:19;;;;;;;;;;;;;;;;;;2105750;28;19966;-46
2022/08/05 02:21:21;;;;;;;;;;;;;;;;;;2105916;28;19932;-45
2022/08/05 02:22:22;;;;;;;;;;;;;;;;;;2105995;28;20019;-44
2022/08/05 02:23:27;;;;;;;;;;;;;;;;;;2105998;28;20339;-45
2022/08/05 02:24:28;;;;;;;;;;;;;;;;;;2106002;28;20026;-45
2022/08/05 02:25:29;;;;;;;;;;;;;;;;;;2105832;28;20376;-44
2022/08/05 02:26:33;;;;;;;;;;;;;;;;;;2105742;28;19924;-45
2022/08/05 02:27:34;;;;;;;;;;;;;;;;;;2105931;28;19925;-45
2022/08/05 02:28:55;;;;;;;;;;;;;;;;;;2107358;28;19977;-44
2022/08/05 02:29:56;;;;;;;;;;;;;;;;;;2107311;28;20003;-44
2022/08/05 02:30:59;;;;;;;;;;;;;;;;;;2107100;28;19990;-45
2022/08/05 02:32:00;;;;;;;;;;;;;;;;;;2107736;28;19924;-45
2022/08/05 02:33:05;;;;;;;;;;;;;;;;;;2107229;28;20031;-45
2022/08/05 02:34:06;;;;;;;;;;;;;;;;;;2107286;28;20026;-45
2022/08/05 02:35:10;;;;;;;;;;;;;;;;;;2107170;28;19974;-44
2022/08/05 02:36:14;;;;;;;;;;;;;;;;;;2106985;28;20278;-45
2022/08/05 02:37:16;;;;;;;;;;;;;;;;;;2107142;28;19976;-44
2022/08/05 02:38:17;;;;;;;;;;;;;;;;;;2107181;28;20054;-45
2022/08/05 02:39:20;;;;;;;;;;;;;;;;;;2107132;28;19931;-45
2022/08/05 02:40:21;;;;;;;;;;;;;;;;;;2107161;28;19974;-45
2022/08/05 02:41:23;;;;;;;;;;;;;;;;;;2107194;28;19977;-45
2022/08/05 02:42:23;;;;;;;;;;;;;;;;;;2107473;28;20073;-45
2022/08/05 02:43:28;;;;;;;;;;;;;;;;;;2107349;28;19924;-45
2022/08/05 02:44:28;;;;;;;;;;;;;;;;;;2107039;28;19954;-45
2022/08/05 02:45:32;;;;;;;;;;;;;;;;;;2107207;28;19924;-47
2022/08/05 02:46:53;;;;;;;;;;;;;;;;;;2107083;28;19924;-46
2022/08/05 02:48:01;;;;;;;;;;;;;;;;;;2107480;28;19928;-46
2022/08/05 02:49:12;;;;;;;;;;;;;;;;;;2107332;28;19924;-44
2022/08/05 02:50:13;;;;;;;;;;;;;;;;;;2107076;28;20285;-45
2022/08/05 02:51:14;;;;;;;;;;;;;;;;;;2107147;28;20115;-47
2022/08/05 02:52:15;;;;;;;;;;;;;;;;;;2107240;28;20014;-45
2022/08/05 02:53:30;;;;;;;;;;;;;;;;;;2107462;28;19925;-45
2022/08/05 02:54:39;;;;;;;;;;;;;;;;;;2107100;28;20419;-45
2022/08/05 02:55:42;;;;;;;;;;;;;;;;;;2107286;28;19924;-45
2022/08/05 02:56:52;;;;;;;;;;;;;;;;;;2107301;28;19924;-45
2022/08/05 02:57:53;;;;;;;;;;;;;;;;;;2107324;28;20014;-45
2022/08/05 02:59:14;;;;;;;;;;;;;;;;;;2107099;28;19969;-46
2022/08/05 03:00:15;;;;;;;;;;;;;;;;;;2107132;28;19928;-45
2022/08/05 03:01:16;;;;;;;;;;;;;;;;;;2106994;28;19932;-46
2022/08/05 03:02:17;;;;;;;;;;;;;;;;;;2107062;28;19950;-45
2022/08/05 03:03:18;;;;;;;;;;;;;;;;;;2106993;28;20329;-46
2022/08/05 03:04:18;;;;;;;;;;;;;;;;;;2106911;28;19954;-45
2022/08/05 03:05:19;;;;;;;;;;;;;;;;;;2107197;28;19924;-45
2022/08/05 03:06:22;;;;;;;;;;;;;;;;;;2106988;28;19935;-46
2022/08/05 03:07:43;;;;;;;;;;;;;;;;;;2107088;28;19974;-45
2022/08/05 03:09:03;;;;;;;;;;;;;;;;;;2107090;28;19931;-45
2022/08/05 03:10:04;;;;;;;;;;;;;;;;;;2106977;28;20439;-45
2022/08/05 03:11:05;;;;;;;;;;;;;;;;;;2108194;28;20300;-46
2022/08/05 03:12:26;;;;;;;;;;;;;;;;;;2115524;28;19928;-45
2022/08/05 03:13:27;;;;;;;;;;;;;;;;;;2115298;28;19924;-45
2022/08/05 03:14:28;;;;;;;;;;;;;;;;;;2115416;28;19924;-45
2022/08/05 03:15:28;;;;;;;;;;;;;;;;;;2115428;28;19930;-46
2022/08/05 03:16:30;;;;;;;;;;;;;;;;;;2115370;28;19931;-45
2022/08/05 03:17:32;;;;;;;;;;;;;;;;;;2115359;28;20464;-46
2022/08/05 03:18:33;;;;;;;;;;;;;;;;;;2115364;28;19924;-47
2022/08/05 03:19:33;;;;;;;;;;;;;;;;;;2115297;28;20026;-45
2022/08/05 03:20:36;;;;;;;;;;;;;;;;;;2115276;28;20329;-46
2022/08/05 03:21:37;;;;;;;;;;;;;;;;;;2115702;28;19924;-45
2022/08/05 03:22:42;;;;;;;;;;;;;;;;;;2115435;28;19924;-45
2022/08/05 03:23:47;;;;;;;;;;;;;;;;;;2115456;28;19968;-45
2022/08/05 03:24:48;;;;;;;;;;;;;;;;;;2115392;28;20219;-45
2022/08/05 03:25:51;;;;;;;;;;;;;;;;;;2115274;28;19924;-45
2022/08/05 03:27:12;;;;;;;;;;;;;;;;;;2115142;28;20052;-44
2022/08/05 03:28:12;;;;;;;;;;;;;;;;;;2115413;28;19924;-44
2022/08/05 03:29:14;;;;;;;;;;;;;;;;;;2115389;28;19931;-45
2022/08/05 03:30:18;;;;;;;;;;;;;;;;;;2115284;28;20347;-45
2022/08/05 03:31:19;;;;;;;;;;;;;;;;;;2115333;28;19924;-45
2022/08/05 03:32:40;;;;;;;;;;;;;;;;;;2115213;28;20361;-45
2022/08/05 03:33:40;;;;;;;;;;;;;;;;;;2115589;28;20015;-46
2022/08/05 03:34:51;;;;;;;;;;;;;;;;;;2115197;28;20281;-46
2022/08/05 03:35:52;;;;;;;;;;;;;;;;;;2115574;28;19930;-46
2022/08/05 03:36:53;;;;;;;;;;;;;;;;;;2115204;28;20376;-46
2022/08/05 03:37:54;;;;;;;;;;;;;;;;;;2115186;28;20010;-46
2022/08/05 03:38:55;;;;;;;;;;;;;;;;;;2115137;28;20010;-46
2022/08/05 03:39:56;;;;;;;;;;;;;;;;;;2114118;28;20288;-47
2022/08/05 03:41:00;;;;;;;;;;;;;;;;;;2115148;28;19958;-46
2022/08/05 03:42:00;;;;;;;;;;;;;;;;;;2114919;28;20031;-46
2022/08/05 03:43:01;;;;;;;;;;;;;;;;;;2115472;28;19968;-45
2022/08/05 03:44:22;;;;;;;;;;;;;;;;;;2107239;28;19924;-45
2022/08/05 03:45:23;;;;;;;;;;;;;;;;;;2106958;28;19924;-46
2022/08/05 03:46:24;;;;;;;;;;;;;;;;;;2106792;28;19978;-45
2022/08/05 03:47:29;;;;;;;;;;;;;;;;;;2106821;28;20038;-45
2022/08/05 03:48:36;;;;;;;;;;;;;;;;;;2107118;28;19928;-46
2022/08/05 03:49:37;;;;;;;;;;;;;;;;;;2106671;28;19947;-45
2022/08/05 03:50:52;;;;;;;;;;;;;;;;;;2106879;28;19924;-46
2022/08/05 03:51:53;;;;;;;;;;;;;;;;;;2106646;28;20399;-46
2022/08/05 03:53:14;;;;;;;;;;;;;;;;;;2106801;28;19969;-45
2022/08/05 03:54:35;;;;;;;;;;;;;;;;;;2106756;28;19924;-46
2022/08/05 03:55:56;;;;;;;;;;;;;;;;;;2106644;28;20449;-47
2022/08/05 03:57:12;;;;;;;;;;;;;;;;;;2106838;28;19924;-44
2022/08/05 03:58:17;;;;;;;;;;;;;;;;;;2106734;28;19924;-45
2022/08/05 03:59:18;;;;;;;;;;;;;;;;;;2106654;28;19924;-45
2022/08/05 04:00:25;;;;;;;;;;;;;;;;;;2106747;28;19948;-44
2022/08/05 04:01:26;;;;;;;;;;;;;;;;;;2106737;28;19924;-45
2022/08/05 04:02:27;;;;;;;;;;;;;;;;;;2106441;28;19931;-45
2022/08/05 04:03:38;;;;;;;;;;;;;;;;;;2106637;28;19928;-45
2022/08/05 04:04:39;;;;;;;;;;;;;;;;;;2106666;28;19989;-44
2022/08/05 04:05:41;;;;;;;;;;;;;;;;;;2106661;28;20284;-45
2022/08/05 04:06:42;;;;;;;;;;;;;;;;;;2106680;28;20441;-45
2022/08/05 04:07:48;;;;;;;;;;;;;;;;;;2106771;28;19931;-45
2022/08/05 04:08:58;;;;;;;;;;;;;;;;;;2106586;28;19924;-44
2022/08/05 04:09:58;;;;;;;;;;;;;;;;;;2106536;28;19959;-45
2022/08/05 04:10:59;;;;;;;;;;;;;;;;;;2106661;28;20373;-45
2022/08/05 04:12:00;;;;;;;;;;;;;;;;;;2114938;28;20280;-44
2022/08/05 04:13:01;;;;;;;;;;;;;;;;;;2114954;28;19927;-45
2022/08/05 04:14:05;;;;;;;;;;;;;;;;;;2114902;28;20300;-44
2022/08/05 04:15:06;;;;;;;;;;;;;;;;;;2114950;28;20003;-44
2022/08/05 04:16:08;;;;;;;;;;;;;;;;;;2115108;28;19999;-44
2022/08/05 04:17:09;;;;;;;;;;;;;;;;;;2114920;28;19938;-45
2022/08/05 04:18:10;;;;;;;;;;;;;;;;;;2115114;28;19969;-44
2022/08/05 04:19:13;;;;;;;;;;;;;;;;;;2114956;28;20397;-45
2022/08/05 04:20:14;;;;;;;;;;;;;;;;;;2114873;28;19966;-45
2022/08/05 04:21:14;;;;;;;;;;;;;;;;;;2114966;28;20348;-47
2022/08/05 04:22:35;;;;;;;;;;;;;;;;;;2115122;28;19924;-45
2022/08/05 04:23:36;;;;;;;;;;;;;;;;;;2114861;28;20027;-44
2022/08/05 04:24:57;;;;;;;;;;;;;;;;;;2115155;28;20285;-46
2022/08/05 04:25:58;;;;;;;;;;;;;;;;;;2114918;28;20002;-46
2022/08/05 04:27:01;;;;;;;;;;;;;;;;;;2114946;28;19977;-46
2022/08/05 04:28:03;;;;;;;;;;;;;;;;;;2114947;28;20022;-46
2022/08/05 04:29:11;;;;;;;;;;;;;;;;;;2114906;28;19928;-47
2022/08/05 04:30:12;;;;;;;;;;;;;;;;;;2114868;28;19924;-49
2022/08/05 04:31:13;;;;;;;;;;;;;;;;;;2114937;28;19973;-48
2022/08/05 04:32:16;;;;;;;;;;;;;;;;;;2114951;28;19928;-46
2022/08/05 04:33:20;;;;;;;;;;;;;;;;;;2114776;28;20011;-46
2022/08/05 04:34:41;;;;;;;;;;;;;;;;;;2115098;28;19924;-46
2022/08/05 04:35:43;;;;;;;;;;;;;;;;;;2114726;28;20338;-47
2022/08/05 04:37:04;;;;;;;;;;;;;;;;;;2114942;28;19928;-46
2022/08/05 04:38:05;;;;;;;;;;;;;;;;;;2115255;28;20011;-46
2022/08/05 04:39:07;;;;;;;;;;;;;;;;;;2114666;28;19924;-46
2022/08/05 04:40:08;;;;;;;;;;;;;;;;;;2114700;28;19924;-46
2022/08/05 04:41:09;;;;;;;;;;;;;;;;;;2114872;28;20011;-46
2022/08/05 04:42:10;;;;;;;;;;;;;;;;;;2114573;28;20293;-46
2022/08/05 04:43:11;;;;;;;;;;;;;;;;;;2114868;28;19923;-45
2022/08/05 04:44:16;;;;;;;;;;;;;;;;;;2114734;28;20277;-43
2022/08/05 04:45:24;;;;;;;;;;;;;;;;;;2115166;28;19931;-44
2022/08/05 04:46:46;;;;;;;;;;;;;;;;;;2114853;28;19993;-43
2022/08/05 04:47:47;;;;;;;;;;;;;;;;;;2114679;28;19924;-43
2022/08/05 04:48:48;;;;;;;;;;;;;;;;;;2114736;28;19930;-43
2022/08/05 04:49:49;;;;;;;;;;;;;;;;;;2114879;28;19924;-46
2022/08/05 04:51:02;;;;;;;;;;;;;;;;;;2114194;28;20338;-48
2022/08/05 04:52:11;;;;;;;;;;;;;;;;;;2114897;28;20006;-45
2022/08/05 04:53:12;;;;;;;;;;;;;;;;;;2114991;28;19924;-48
2022/08/05 04:54:13;;;;;;;;;;;;;;;;;;2115091;28;19923;-44
2022/08/05 04:55:14;;;;;;;;;;;;;;;;;;2114903;28;20388;-44
2022/08/05 04:56:15;;;;;;;;;;;;;;;;;;2114713;28;19924;-44
2022/08/05 04:57:35;;;;;;;;;;;;;;;;;;2114812;28;19931;-45
2022/08/05 04:58:37;;;;;;;;;;;;;;;;;;2115131;28;19924;-45
2022/08/05 04:59:38;;;;;;;;;;;;;;;;;;2114607;28;20004;-45
2022/08/05 05:00:41;;;;;;;;;;;;;;;;;;2114970;28;19923;-44
2022/08/05 05:01:42;;;;;;;;;;;;;;;;;;2115073;28;19930;-43
2022/08/05 05:03:03;;;;;;;;;;;;;;;;;;2114924;28;19923;-44
2022/08/05 05:04:04;;;;;;;;;;;;;;;;;;2114997;28;20030;-43
2022/08/05 05:05:05;;;;;;;;;;;;;;;;;;2114834;28;20381;-43
2022/08/05 05:06:26;;;;;;;;;;;;;;;;;;2114410;28;19931;-44
2022/08/05 05:07:40;;;;;;;;;;;;;;;;;;2114983;28;20380;-44
2022/08/05 05:08:46;;;;;;;;;;;;;;;;;;2114565;28;20001;-43
2022/08/05 05:09:50;;;;;;;;;;;;;;;;;;2114763;28;19924;-44
2022/08/05 05:10:51;;;;;;;;;;;;;;;;;;2114678;28;20015;-45
2022/08/05 05:11:56;;;;;;;;;;;;;;;;;;2106131;28;20475;-45
2022/08/05 05:13:01;;;;;;;;;;;;;;;;;;2106376;28;20427;-45
2022/08/05 05:14:05;;;;;;;;;;;;;;;;;;2106134;28;20452;-46
2022/08/05 05:15:06;;;;;;;;;;;;;;;;;;2106371;28;19928;-45
2022/08/05 05:16:11;;;;;;;;;;;;;;;;;;2106191;28;19970;-44
2022/08/05 05:17:12;;;;;;;;;;;;;;;;;;2106456;28;20335;-45
2022/08/05 05:18:13;;;;;;;;;;;;;;;;;;2106074;28;19930;-44
2022/08/05 05:19:14;;;;;;;;;;;;;;;;;;2106492;28;19986;-44
2022/08/05 05:20:20;;;;;;;;;;;;;;;;;;2106193;28;19932;-44
2022/08/05 05:21:20;;;;;;;;;;;;;;;;;;2106029;28;20386;-45
2022/08/05 05:22:21;;;;;;;;;;;;;;;;;;2106150;28;20027;-44
2022/08/05 05:23:24;;;;;;;;;;;;;;;;;;2106712;28;19924;-44
2022/08/05 05:24:26;;;;;;;;;;;;;;;;;;2106237;28;19993;-44
2022/08/05 05:25:47;;;;;;;;;;;;;;;;;;2106319;28;19928;-45
2022/08/05 05:26:48;;;;;;;;;;;;;;;;;;2106248;28;20020;-44
2022/08/05 05:27:51;;;;;;;;;;;;;;;;;;2106508;28;19924;-45
2022/08/05 05:28:54;;;;;;;;;;;;;;;;;;2106068;28;19931;-45
2022/08/05 05:29:55;;;;;;;;;;;;;;;;;;2106426;28;19924;-45
2022/08/05 05:31:03;;;;;;;;;;;;;;;;;;2106276;28;19924;-47
2022/08/05 05:32:06;;;;;;;;;;;;;;;;;;2106078;28;20007;-45
2022/08/05 05:33:25;;;;;;;;;;;;;;;;;;2106060;28;19996;-44
2022/08/05 05:34:25;;;;;;;;;;;;;;;;;;2106132;28;20007;-45
2022/08/05 05:35:27;;;;;;;;;;;;;;;;;;2114112;28;20331;-44
2022/08/05 05:36:28;;;;;;;;;;;;;;;;;;2114226;28;20409;-45
2022/08/05 05:37:30;;;;;;;;;;;;;;;;;;2114770;28;19924;-45
2022/08/05 05:38:51;;;;;;;;;;;;;;;;;;2114413;28;20394;-45
2022/08/05 05:39:52;;;;;;;;;;;;;;;;;;2114672;28;19924;-45
2022/08/05 05:40:52;;;;;;;;;;;;;;;;;;2114489;28;20014;-46
2022/08/05 05:41:53;;;;;;;;;;;;;;;;;;2114342;28;19970;-45
2022/08/05 05:42:54;;;;;;;;;;;;;;;;;;2114719;28;19931;-45
2022/08/05 05:43:55;;;;;;;;;;;;;;;;;;2114715;28;19923;-45
2022/08/05 05:45:00;;;;;;;;;;;;;;;;;;2114486;28;19930;-45
2022/08/05 05:46:01;;;;;;;;;;;;;;;;;;2114964;28;20288;-45
2022/08/05 05:47:02;;;;;;;;;;;;;;;;;;2114531;28;20026;-45
2022/08/05 05:48:06;;;;;;;;;;;;;;;;;;2114655;28;20000;-45
2022/08/05 05:49:08;;;;;;;;;;;;;;;;;;2114361;28;19931;-46
2022/08/05 05:50:23;;;;;;;;;;;;;;;;;;2114893;28;19973;-46
2022/08/05 05:51:24;;;;;;;;;;;;;;;;;;2114289;28;20427;-45
2022/08/05 05:52:26;;;;;;;;;;;;;;;;;;2114666;28;19923;-48
2022/08/05 05:53:31;;;;;;;;;;;;;;;;;;2114601;28;19924;-44
2022/08/05 05:54:32;;;;;;;;;;;;;;;;;;2114572;28;19924;-46
2022/08/05 05:55:51;;;;;;;;;;;;;;;;;;2114768;28;19930;-46
2022/08/05 05:57:01;;;;;;;;;;;;;;;;;;2114413;28;19978;-45
2022/08/05 05:58:02;;;;;;;;;;;;;;;;;;2114528;28;20018;-45
2022/08/05 05:59:03;;;;;;;;;;;;;;;;;;2114413;28;19924;-45
2022/08/05 06:00:06;;;;;;;;;;;;;;;;;;2114515;28;19928;-45
2022/08/05 06:01:07;;;;;;;;;;;;;;;;;;2114319;28;19924;-46
2022/08/05 06:02:13;;;;;;;;;;;;;;;;;;2114464;28;19931;-45
2022/08/05 06:03:14;;;;;;;;;;;;;;;;;;2115228;28;20304;-45
2022/08/05 06:04:35;;;;;;;;;;;;;;;;;;2116049;28;19931;-46
2022/08/05 06:05:36;;;;;;;;;;;;;;;;;;2115954;28;19977;-47
2022/08/05 06:06:37;;;;;;;;;;;;;;;;;;2116055;28;20015;-45
2022/08/05 06:07:38;;;;;;;;;;;;;;;;;;2115864;28;19935;-45
2022/08/05 06:08:43;;;;;;;;;;;;;;;;;;2115908;28;20392;-46
2022/08/05 06:09:43;;;;;;;;;;;;;;;;;;2115871;28;20049;-45
2022/08/05 06:11:00;;;;;;;;;;;;;;;;;;2115486;28;19993;-44
2022/08/05 06:12:01;;;;;;;;;;;;;;;;;;2107331;28;20014;-45
2022/08/05 06:13:04;;;;;;;;;;;;;;;;;;2107421;28;19924;-45
2022/08/05 06:14:04;;;;;;;;;;;;;;;;;;2107465;28;20049;-44
2022/08/05 06:15:05;;;;;;;;;;;;;;;;;;2107491;28;20015;-44
2022/08/05 06:16:06;;;;;;;;;;;;;;;;;;2107308;28;20311;-45
2022/08/05 06:17:27;;;;;;;;;;;;;;;;;;2107345;28;20294;-46
2022/08/05 06:18:31;;;;;;;;;;;;;;;;;;2107511;28;20002;-44
2022/08/05 06:19:32;;;;;;;;;;;;;;;;;;2107454;28;20019;-44
2022/08/05 06:20:35;;;;;;;;;;;;;;;;;;2107451;28;19950;-45
2022/08/05 06:21:36;;;;;;;;;;;;;;;;;;2107412;28;19928;-45
2022/08/05 06:22:39;;;;;;;;;;;;;;;;;;2107334;28;20030;-44
2022/08/05 06:23:40;;;;;;;;;;;;;;;;;;2107334;28;19931;-46
2022/08/05 06:24:44;;;;;;;;;;;;;;;;;;2107510;28;19985;-46
2022/08/05 06:25:50;;;;;;;;;;;;;;;;;;2107284;28;19924;-45
2022/08/05 06:27:11;;;;;;;;;;;;;;;;;;2107395;28;20010;-46
2022/08/05 06:28:17;;;;;;;;;;;;;;;;;;2107406;28;20324;-45
2022/08/05 06:29:21;;;;;;;;;;;;;;;;;;2107291;28;19924;-45
2022/08/05 06:30:42;;;;;;;;;;;;;;;;;;2107253;28;20412;-45
2022/08/05 06:31:44;;;;;;;;;;;;;;;;;;2107503;28;19924;-44
2022/08/05 06:32:44;;;;;;;;;;;;;;;;;;2107248;28;19928;-44
2022/08/05 06:33:45;;;;;;;;;;;;;;;;;;2107209;28;19924;-45
2022/08/05 06:35:07;;;;;;;;;;;;;;;;;;2107300;28;19928;-44
2022/08/05 06:36:22;;;;;;;;;;;;;;;;;;2107300;28;19928;-44
2022/08/05 06:37:26;;;;;;;;;;;;;;;;;;2107314;28;19928;-44
2022/08/05 06:38:49;;;;;;;;;;;;;;;;;;2107308;28;19928;-45
2022/08/05 06:39:49;;;;;;;;;;;;;;;;;;2107468;28;20019;-44
2022/08/05 06:40:50;;;;;;;;;;;;;;;;;;2107159;28;19932;-44
2022/08/05 06:41:51;;;;;;;;;;;;;;;;;;2107246;28;20011;-43
2022/08/05 06:42:52;;;;;;;;;;;;;;;;;;2107220;28;20365;-44
2022/08/05 06:43:53;;;;;;;;;;;;;;;;;;2107439;28;19924;-45
2022/08/05 06:45:00;;;;;;;;;;;;;;;;;;2107064;28;20015;-46
2022/08/05 06:46:05;;;;;;;;;;;;;;;;;;2107125;28;19924;-46
2022/08/05 06:47:09;;;;;;;;;;;;;;;;;;2107190;28;19924;-45
2022/08/05 06:48:10;;;;;;;;;;;;;;;;;;2107207;28;20316;-47
2022/08/05 06:49:31;;;;;;;;;;;;;;;;;;2107170;28;19924;-46
2022/08/05 06:50:52;;;;;;;;;;;;;;;;;;2107228;28;19924;-44
2022/08/05 06:51:53;;;;;;;;;;;;;;;;;;2107385;28;19924;-44
2022/08/05 06:52:54;;;;;;;;;;;;;;;;;;2107024;28;20381;-44
2022/08/05 06:53:59;;;;;;;;;;;;;;;;;;2107322;28;19924;-44
2022/08/05 06:55:00;;;;;;;;;;;;;;;;;;2107068;28;19931;-44
2022/08/05 06:56:02;;;;;;;;;;;;;;;;;;2107322;28;20002;-46
2022/08/05 06:57:02;;;;;;;;;;;;;;;;;;2107230;28;20018;-46
2022/08/05 06:58:23;;;;;;;;;;;;;;;;;;2107190;28;19924;-46
2022/08/05 06:59:35;;;;;;;;;;;;;;;;;;2107479;28;19924;-45
2022/08/05 07:00:39;;;;;;;;;;;;;;;;;;2107079;28;20026;-45
2022/08/05 07:01:41;;;;;;;;;;;;;;;;;;2106884;28;19931;-46
2022/08/05 07:02:42;;;;;;;;;;;;;;;;;;2107040;28;19925;-47
2022/08/05 07:03:43;;;;;;;;;;;;;;;;;;2107281;28;20015;-46
2022/08/05 07:04:44;;;;;;;;;;;;;;;;;;2107248;28;20345;-46
2022/08/05 07:05:45;;;;;;;;;;;;;;;;;;2106957;28;19924;-46
2022/08/05 07:06:46;;;;;;;;;;;;;;;;;;2106931;28;20349;-46
2022/08/05 07:07:50;;;;;;;;;;;;;;;;;;2107138;28;19973;-46
2022/08/05 07:08:51;;;;;;;;;;;;;;;;;;2107100;28;19993;-46
2022/08/05 07:09:55;;;;;;;;;;;;;;;;;;2107235;28;19931;-46
2022/08/05 07:10:58;;;;;;;;;;;;;;;;;;2107037;28;19924;-45
2022/08/05 07:11:59;;;;;;;;;;;;;;;;;;2107009;28;19931;-46
2022/08/05 07:17:41;;;;;;;;;;;;;;;;;;2106785;28;19985;-47
2022/08/05 07:19:01;;;;;;;;;;;;;;;;;;2106973;28;19935;-47
2022/08/05 07:20:03;;;;;;;;;;;;;;;;;;2106764;28;20254;-44
2022/08/05 07:21:24;;;;;;;;;;;;;;;;;;2106632;28;20369;-46
2022/08/05 07:22:26;;;;;;;;;;;;;;;;;;2106916;28;19971;-44
2022/08/05 07:23:29;;;;;;;;;;;;;;;;;;2106816;28;19954;-44
2022/08/05 07:24:30;;;;;;;;;;;;;;;;;;2106997;28;19956;-44
2022/08/05 07:25:31;;;;;;;;;;;;;;;;;;2107113;28;20356;-46
2022/08/05 07:26:52;;;;;;;;;;;;;;;;;;2106820;28;19924;-46